createdAt,value
2018-12-14T00:00:01.820Z,22.30
2018-12-14T00:02:32.937Z,22.27
2018-12-14T00:05:01.902Z,17.63
2018-12-14T00:07:31.197Z,20.20
2018-12-14T00:10:00.501Z,21.10
2018-12-14T00:12:29.391Z,21.20
2018-12-14T00:14:58.684Z,18.23
2018-12-14T00:17:27.562Z,21.97
2018-12-14T00:19:56.429Z,20.87
2018-12-14T00:22:25.303Z,21.13
2018-12-14T00:24:54.181Z,21.23
2018-12-14T00:27:23.709Z,21.80
2018-12-14T00:29:53.236Z,22.00
2018-12-14T00:32:22.793Z,20.37
2018-12-14T00:34:51.664Z,20.80
2018-12-14T00:37:20.956Z,20.17
2018-12-14T00:39:49.876Z,20.23
2018-12-14T00:42:18.750Z,21.57
2018-12-14T00:44:47.659Z,19.30
2018-12-14T00:47:16.587Z,21.33
2018-12-14T00:49:45.447Z,21.60
2018-12-14T00:52:14.338Z,20.60
2018-12-14T00:54:43.203Z,20.73
2018-12-14T00:57:12.068Z,19.87
2018-12-14T00:59:40.926Z,17.17
2018-12-14T01:02:15.027Z,19.90
2018-12-14T01:04:44.322Z,20.23
2018-12-14T01:07:13.213Z,20.97
2018-12-14T01:09:42.116Z,17.70
2018-12-14T01:12:10.997Z,17.00
2018-12-14T01:14:39.966Z,20.87
2018-12-14T01:17:09.275Z,21.30
2018-12-14T01:19:38.092Z,19.60
2018-12-14T01:22:06.969Z,17.43
2018-12-14T01:24:35.834Z,18.90
2018-12-14T01:27:04.706Z,18.80
2018-12-14T01:29:33.551Z,18.30
2018-12-14T01:32:02.414Z,19.17
2018-12-14T01:34:31.263Z,20.03
2018-12-14T01:37:00.157Z,19.77
2018-12-14T01:39:29.002Z,21.83
2018-12-14T01:42:04.671Z,22.93
2018-12-14T01:44:29.170Z,20.77
2018-12-14T01:46:58.041Z,19.27
2018-12-14T01:49:26.929Z,23.07
2018-12-14T01:51:55.976Z,23.77
2018-12-14T01:54:24.856Z,23.90
2018-12-14T01:56:53.985Z,18.40
2018-12-14T01:59:22.867Z,20.73
2018-12-14T02:01:51.749Z,20.53
2018-12-14T02:04:20.649Z,21.80
2018-12-14T02:06:49.524Z,21.07
2018-12-14T02:09:18.663Z,22.57
2018-12-14T02:11:47.553Z,21.13
2018-12-14T02:14:16.448Z,19.00
2018-12-14T02:16:45.748Z,20.80
2018-12-14T02:19:14.596Z,21.33
2018-12-14T02:21:43.427Z,17.90
2018-12-14T02:24:12.276Z,20.10
2018-12-14T02:26:41.112Z,21.87
2018-12-14T02:29:09.970Z,18.97
2018-12-14T02:31:38.861Z,20.07
2018-12-14T02:34:07.986Z,19.70
2018-12-14T02:36:36.878Z,21.00
2018-12-14T02:39:06.604Z,20.93
2018-12-14T02:41:35.623Z,20.10
2018-12-14T02:44:05.096Z,19.17
2018-12-14T02:46:34.319Z,17.43
2018-12-14T02:49:03.170Z,21.83
2018-12-14T02:51:32.000Z,19.70
2018-12-14T02:54:01.067Z,17.40
2018-12-14T02:56:30.411Z,19.97
2018-12-14T02:58:59.266Z,18.83
2018-12-14T03:01:28.511Z,17.80
2018-12-14T03:03:57.584Z,20.03
2018-12-14T03:06:26.814Z,18.97
2018-12-14T03:08:55.663Z,16.93
2018-12-14T03:11:24.478Z,18.53
2018-12-14T03:13:53.323Z,18.17
2018-12-14T03:16:22.199Z,18.97
2018-12-14T03:18:51.018Z,17.57
2018-12-14T03:21:19.881Z,15.73
2018-12-14T03:23:48.687Z,16.90
2018-12-14T03:26:18.023Z,20.00
2018-12-14T03:28:46.884Z,19.73
2018-12-14T03:31:15.698Z,18.17
2018-12-14T03:33:44.756Z,17.87
2018-12-14T03:36:14.046Z,18.07
2018-12-14T03:38:42.891Z,17.20
2018-12-14T03:41:11.867Z,19.07
2018-12-14T03:43:40.735Z,18.87
2018-12-14T03:46:09.620Z,20.57
2018-12-14T03:48:38.729Z,18.40
2018-12-14T03:51:07.611Z,18.73
2018-12-14T03:53:36.498Z,18.33
2018-12-14T03:56:05.709Z,20.60
2018-12-14T03:58:34.568Z,17.70
2018-12-14T04:01:03.434Z,15.70
2018-12-14T04:03:32.367Z,17.87
2018-12-14T04:06:01.319Z,18.37
2018-12-14T04:08:30.465Z,17.40
2018-12-14T04:10:59.365Z,16.07
2018-12-14T04:13:28.916Z,15.93
2018-12-14T04:15:58.232Z,13.13
2018-12-14T04:18:27.094Z,14.60
2018-12-14T04:20:56.193Z,17.13
2018-12-14T04:23:25.138Z,15.10
2018-12-14T04:25:54.019Z,16.87
2018-12-14T04:28:23.308Z,16.43
2018-12-14T04:30:52.506Z,15.40
2018-12-14T04:33:21.595Z,19.10
2018-12-14T04:35:51.210Z,18.43
2018-12-14T04:38:20.133Z,18.67
2018-12-14T04:40:49.085Z,17.73
2018-12-14T04:43:17.940Z,19.90
2018-12-14T04:45:47.165Z,17.07
2018-12-14T04:48:16.303Z,18.53
2018-12-14T04:50:45.211Z,17.13
2018-12-14T04:53:14.089Z,18.30
2018-12-14T04:55:42.997Z,19.50
2018-12-14T04:58:11.884Z,17.70
2018-12-14T05:00:40.993Z,17.83
2018-12-14T05:03:09.890Z,15.50
2018-12-14T05:05:38.789Z,17.57
2018-12-14T05:08:07.671Z,15.80
2018-12-14T05:10:36.553Z,15.80
2018-12-14T05:13:06.548Z,18.50
2018-12-14T05:15:35.574Z,18.10
2018-12-14T05:18:04.481Z,21.73
2018-12-14T05:20:33.455Z,17.40
2018-12-14T05:23:02.336Z,19.27
2018-12-14T05:25:31.648Z,21.97
2018-12-14T05:28:00.619Z,18.30
2018-12-14T05:30:30.042Z,17.47
2018-12-14T05:32:58.933Z,17.50
2018-12-14T05:35:27.805Z,15.87
2018-12-14T05:37:56.713Z,17.93
2018-12-14T05:40:25.849Z,19.50
2018-12-14T05:42:55.156Z,19.17
2018-12-14T05:45:24.064Z,17.73
2018-12-14T05:47:52.975Z,18.40
2018-12-14T05:50:22.179Z,20.07
2018-12-14T05:52:51.083Z,19.97
2018-12-14T05:55:21.244Z,18.13
2018-12-14T05:57:50.086Z,19.77
2018-12-14T06:00:19.274Z,21.40
2018-12-14T06:02:48.155Z,21.80
2018-12-14T06:05:17.051Z,18.70
2018-12-14T06:07:45.933Z,19.03
2018-12-14T06:10:14.837Z,15.73
2018-12-14T06:12:43.734Z,18.33
2018-12-14T06:15:12.617Z,17.90
2018-12-14T06:17:41.508Z,17.37
2018-12-14T06:20:10.659Z,19.50
2018-12-14T06:22:39.549Z,17.63
2018-12-14T06:25:09.201Z,19.53
2018-12-14T06:27:38.462Z,15.47
2018-12-14T06:30:07.921Z,15.03
2018-12-14T06:32:36.796Z,15.90
2018-12-14T06:35:06.103Z,16.63
2018-12-14T06:37:35.332Z,13.33
2018-12-14T06:40:05.006Z,15.07
2018-12-14T06:42:33.880Z,16.40
2018-12-14T06:45:04.028Z,12.97
2018-12-14T06:47:33.575Z,14.70
2018-12-14T06:50:02.514Z,17.17
2018-12-14T06:52:32.119Z,15.33
2018-12-14T06:55:01.096Z,14.80
2018-12-14T06:57:30.004Z,14.17
2018-12-14T06:59:58.872Z,13.20
2018-12-14T07:02:27.748Z,13.00
2018-12-14T07:04:56.695Z,12.43
2018-12-14T07:07:25.685Z,13.73
2018-12-14T07:09:54.596Z,15.27
2018-12-14T07:12:23.491Z,13.07
2018-12-14T07:14:52.415Z,15.90
2018-12-14T07:17:21.299Z,14.13
2018-12-14T07:19:50.160Z,15.77
2018-12-14T07:22:19.465Z,18.27
2018-12-14T07:24:48.656Z,16.77
2018-12-14T07:27:17.520Z,14.23
2018-12-14T07:29:46.388Z,16.10
2018-12-14T07:32:15.240Z,14.53
2018-12-14T07:34:44.105Z,16.33
2018-12-14T07:37:13.015Z,15.50
2018-12-14T07:39:41.946Z,17.20
2018-12-14T07:42:10.965Z,15.77
2018-12-14T07:44:40.179Z,15.87
2018-12-14T07:47:11.829Z,17.53
2018-12-14T07:49:40.200Z,14.33
2018-12-14T07:52:09.537Z,15.67
2018-12-14T07:54:38.546Z,15.43
2018-12-14T07:57:07.666Z,19.63
2018-12-14T07:59:36.646Z,13.10
2018-12-14T08:02:05.593Z,14.93
2018-12-14T08:04:34.897Z,12.90
2018-12-14T08:07:04.097Z,13.10
2018-12-14T08:09:33.305Z,15.80
2018-12-14T08:12:02.596Z,13.33
2018-12-14T08:14:31.542Z,13.63
2018-12-14T08:17:00.375Z,15.57
2018-12-14T08:19:29.245Z,12.73
2018-12-14T08:21:58.355Z,13.30
2018-12-14T08:24:27.248Z,13.23
2018-12-14T08:26:56.338Z,13.23
2018-12-14T08:29:25.757Z,14.23
2018-12-14T08:31:54.971Z,15.57
2018-12-14T08:34:23.818Z,13.93
2018-12-14T08:36:52.662Z,15.30
2018-12-14T08:39:21.806Z,12.97
2018-12-14T08:41:50.707Z,15.10
2018-12-14T08:44:19.702Z,17.40
2018-12-14T08:46:48.882Z,13.93
2018-12-14T08:49:17.704Z,15.83
2018-12-14T08:51:46.604Z,16.50
2018-12-14T08:54:15.498Z,14.07
2018-12-14T08:56:44.454Z,15.73
2018-12-14T08:59:13.346Z,16.07
2018-12-14T09:01:42.219Z,15.37
2018-12-14T09:04:11.103Z,16.53
2018-12-14T09:06:40.020Z,17.20
2018-12-14T09:09:08.980Z,16.70
2018-12-14T09:11:37.828Z,16.40
2018-12-14T09:14:06.704Z,18.33
2018-12-14T09:16:35.604Z,14.23
2018-12-14T09:19:04.571Z,15.23
2018-12-14T09:21:33.444Z,16.20
2018-12-14T09:24:02.275Z,14.77
2018-12-14T09:26:31.157Z,15.77
2018-12-14T09:29:00.718Z,16.90
2018-12-14T09:31:29.929Z,15.50
2018-12-14T09:33:58.824Z,18.07
2018-12-14T09:36:27.716Z,16.33
2018-12-14T09:38:58.116Z,14.27
2018-12-14T09:41:26.971Z,15.77
2018-12-14T09:43:55.850Z,16.20
2018-12-14T09:46:25.459Z,12.97
2018-12-14T09:48:54.345Z,16.83
2018-12-14T09:51:23.229Z,14.40
2018-12-14T09:53:52.324Z,14.83
2018-12-14T09:56:21.241Z,15.00
2018-12-14T09:58:50.299Z,16.53
2018-12-14T10:01:19.191Z,17.10
2018-12-14T10:03:48.071Z,19.97
2018-12-14T10:06:17.770Z,13.97
2018-12-14T10:08:46.631Z,19.47
2018-12-14T10:11:15.825Z,17.17
2018-12-14T10:13:45.260Z,15.53
2018-12-14T10:16:14.507Z,15.73
2018-12-14T10:18:43.929Z,15.33
2018-12-14T10:21:12.744Z,15.27
2018-12-14T10:23:41.860Z,15.53
2018-12-14T10:26:10.678Z,13.67
2018-12-14T10:28:39.502Z,14.03
2018-12-14T10:31:08.303Z,15.67
2018-12-14T10:33:37.592Z,14.57
2018-12-14T10:36:06.874Z,13.23
2018-12-14T10:38:35.668Z,10.93
2018-12-14T10:41:04.483Z,15.73
2018-12-14T10:43:33.470Z,16.07
2018-12-14T10:46:02.807Z,12.90
2018-12-14T10:48:31.890Z,14.27
2018-12-14T10:51:00.799Z,13.33
2018-12-14T10:53:29.607Z,14.50
2018-12-14T10:55:58.416Z,16.27
2018-12-14T10:58:27.268Z,16.57
2018-12-14T11:01:01.617Z,15.37
2018-12-14T11:03:30.509Z,15.63
2018-12-14T11:05:59.775Z,13.93
2018-12-14T11:08:28.660Z,15.33
2018-12-14T11:10:57.954Z,14.80
2018-12-14T11:13:27.011Z,15.70
2018-12-14T11:15:55.883Z,13.37
2018-12-14T11:18:24.707Z,15.03
2018-12-14T11:20:53.556Z,15.53
2018-12-14T11:23:22.622Z,14.80
2018-12-14T11:25:51.487Z,14.67
2018-12-14T11:28:20.337Z,16.57
2018-12-14T11:30:49.242Z,14.40
2018-12-14T11:33:18.314Z,16.00
2018-12-14T11:35:47.204Z,15.90
2018-12-14T11:38:16.119Z,21.50
2018-12-14T11:40:45.406Z,17.13
2018-12-14T11:43:14.361Z,14.50
2018-12-14T11:45:43.729Z,17.47
2018-12-14T11:48:12.792Z,15.03
2018-12-14T11:50:41.740Z,14.60
2018-12-14T11:53:12.765Z,17.43
2018-12-14T11:55:42.197Z,17.13
2018-12-14T11:58:11.164Z,15.87
2018-12-14T12:00:40.452Z,17.00
2018-12-14T12:03:09.352Z,16.07
2018-12-14T12:05:38.276Z,14.10
2018-12-14T12:08:09.158Z,16.57
2018-12-14T12:10:38.453Z,19.23
2018-12-14T12:13:07.464Z,18.10
2018-12-14T12:15:36.481Z,15.00
2018-12-14T12:18:05.804Z,13.87
2018-12-14T12:20:36.604Z,16.00
2018-12-14T12:23:06.040Z,14.27
2018-12-14T12:25:36.146Z,16.63
2018-12-14T12:28:05.287Z,17.20
2018-12-14T12:30:34.154Z,13.63
2018-12-14T12:33:03.043Z,15.37
2018-12-14T12:35:31.936Z,14.47
2018-12-14T12:38:00.956Z,14.77
2018-12-14T12:40:29.840Z,15.60
2018-12-14T12:42:58.952Z,14.27
2018-12-14T12:45:28.047Z,17.90
2018-12-14T12:47:57.262Z,14.03
2018-12-14T12:50:26.249Z,14.93
2018-12-14T12:52:55.121Z,15.90
2018-12-14T12:55:24.139Z,15.80
2018-12-14T12:57:53.148Z,14.50
2018-12-14T13:00:22.278Z,16.43
2018-12-14T13:02:51.151Z,13.53
2018-12-14T13:05:20.188Z,15.70
2018-12-14T13:07:49.121Z,15.23
2018-12-14T13:10:18.089Z,13.57
2018-12-14T13:12:47.003Z,18.80
2018-12-14T13:15:15.939Z,15.83
2018-12-14T13:17:44.876Z,13.87
2018-12-14T13:20:14.212Z,15.73
2018-12-14T13:22:43.220Z,14.03
2018-12-14T13:25:12.113Z,13.03
2018-12-14T13:27:41.035Z,13.63
2018-12-14T13:30:10.352Z,14.20
2018-12-14T13:32:39.228Z,14.50
2018-12-14T13:35:08.107Z,15.37
2018-12-14T13:37:37.118Z,13.53
2018-12-14T13:40:06.610Z,14.43
2018-12-14T13:42:35.606Z,16.47
2018-12-14T13:45:05.017Z,16.83
2018-12-14T13:47:34.828Z,16.30
2018-12-14T13:50:05.068Z,16.97
2018-12-14T13:52:34.034Z,13.30
2018-12-14T13:55:02.984Z,13.70
2018-12-14T13:57:31.973Z,14.70
2018-12-14T14:00:00.882Z,15.53
2018-12-14T14:02:29.751Z,15.33
2018-12-14T14:04:58.689Z,17.93
2018-12-14T14:07:27.641Z,14.47
2018-12-14T14:09:56.593Z,13.13
2018-12-14T14:12:30.823Z,13.10
2018-12-14T14:14:57.194Z,13.77
2018-12-14T14:17:26.222Z,13.13
2018-12-14T14:19:55.556Z,14.10
2018-12-14T14:22:24.829Z,13.30
2018-12-14T14:24:53.767Z,15.83
2018-12-14T14:27:23.112Z,14.23
2018-12-14T14:29:52.519Z,14.30
2018-12-14T14:32:21.429Z,14.03
2018-12-14T14:34:50.329Z,12.87
2018-12-14T14:37:20.225Z,15.90
2018-12-14T14:39:49.089Z,11.80
2018-12-14T14:42:19.152Z,13.90
2018-12-14T14:44:48.023Z,16.90
2018-12-14T14:47:17.020Z,15.87
2018-12-14T14:49:45.915Z,14.87
2018-12-14T14:52:14.800Z,13.17
2018-12-14T14:54:43.947Z,13.43
2018-12-14T14:57:13.187Z,14.53
2018-12-14T14:59:42.113Z,12.90
2018-12-14T15:02:11.051Z,14.70
2018-12-14T15:04:41.536Z,12.80
2018-12-14T15:07:10.399Z,13.07
2018-12-14T15:09:39.392Z,12.33
2018-12-14T15:12:08.381Z,13.43
2018-12-14T15:14:37.269Z,15.33
2018-12-14T15:17:05.929Z,12.60
2018-12-14T15:19:34.960Z,14.57
2018-12-14T15:22:04.790Z,11.63
2018-12-14T15:24:34.013Z,12.57
2018-12-14T15:27:03.006Z,14.97
2018-12-14T15:29:31.945Z,14.53
2018-12-14T15:32:01.526Z,13.87
2018-12-14T15:34:30.795Z,14.63
2018-12-14T15:36:59.676Z,17.27
2018-12-14T15:39:28.555Z,14.03
2018-12-14T15:41:57.478Z,15.30
2018-12-14T15:44:26.350Z,17.10
2018-12-14T15:46:55.236Z,15.60
2018-12-14T15:49:24.519Z,16.33
2018-12-14T15:51:53.424Z,15.17
2018-12-14T15:54:22.291Z,14.17
2018-12-14T15:56:51.630Z,13.40
2018-12-14T15:59:21.158Z,13.47
2018-12-14T16:01:50.683Z,15.13
2018-12-14T16:04:19.852Z,12.43
2018-12-14T16:06:48.718Z,15.57
2018-12-14T16:09:17.598Z,16.90
2018-12-14T16:11:46.780Z,13.73
2018-12-14T16:14:15.953Z,11.97
2018-12-14T16:16:45.036Z,13.53
2018-12-14T16:19:14.218Z,16.37
2018-12-14T16:21:43.409Z,13.87
2018-12-14T16:24:12.369Z,13.63
2018-12-14T16:26:41.261Z,16.37
2018-12-14T16:29:10.577Z,15.13
2018-12-14T16:31:39.555Z,18.70
2018-12-14T16:34:08.560Z,23.90
2018-12-14T16:36:37.495Z,18.60
2018-12-14T16:39:07.639Z,14.23
2018-12-14T16:41:36.958Z,12.97
2018-12-14T16:44:06.268Z,15.57
2018-12-14T16:46:35.667Z,13.40
2018-12-14T16:49:05.549Z,16.27
2018-12-14T16:51:35.424Z,15.23
2018-12-14T16:54:06.388Z,15.47
2018-12-14T16:56:36.361Z,13.13
2018-12-14T16:59:05.276Z,15.87
2018-12-14T17:01:34.257Z,15.77
2018-12-14T17:04:03.640Z,14.30
2018-12-14T17:06:32.983Z,14.63
2018-12-14T17:09:03.257Z,19.93
2018-12-14T17:11:32.298Z,16.97
2018-12-14T17:14:01.575Z,17.57
2018-12-14T17:16:30.909Z,14.17
2018-12-14T17:19:00.300Z,15.63
2018-12-14T17:21:29.599Z,13.47
2018-12-14T17:23:58.882Z,15.53
2018-12-14T17:26:27.790Z,11.63
2018-12-14T17:28:56.659Z,15.10
2018-12-14T17:31:25.553Z,16.47
2018-12-14T17:33:54.428Z,15.57
2018-12-14T17:36:23.855Z,14.37
2018-12-14T17:38:53.344Z,13.00
2018-12-14T17:41:23.064Z,15.53
2018-12-14T17:43:52.034Z,17.00
2018-12-14T17:46:20.947Z,17.73
2018-12-14T17:48:50.015Z,17.37
2018-12-14T17:51:19.589Z,18.57
2018-12-14T17:53:48.978Z,17.77
2018-12-14T17:56:17.957Z,16.70
2018-12-14T17:58:46.992Z,18.53
2018-12-14T18:01:18.792Z,16.00
2018-12-14T18:03:47.685Z,16.53
2018-12-14T18:06:16.805Z,20.03
2018-12-14T18:08:45.716Z,19.90
2018-12-14T18:11:14.720Z,17.07
2018-12-14T18:13:43.644Z,17.20
2018-12-14T18:16:13.040Z,16.90
2018-12-14T18:18:41.992Z,17.63
2018-12-14T18:21:11.137Z,18.90
2018-12-14T18:23:40.064Z,18.40
2018-12-14T18:26:09.095Z,18.57
2018-12-14T18:28:38.023Z,18.00
2018-12-14T18:31:07.658Z,15.90
2018-12-14T18:33:36.526Z,17.87
2018-12-14T18:36:06.024Z,19.87
2018-12-14T18:38:34.878Z,17.97
2018-12-14T18:41:04.053Z,18.17
2018-12-14T18:43:33.029Z,20.17
2018-12-14T18:46:02.548Z,17.87
2018-12-14T18:48:31.481Z,18.30
2018-12-14T18:51:00.411Z,18.90
2018-12-14T18:53:29.281Z,28.67
2018-12-14T18:55:58.186Z,65.33
2018-12-14T18:58:27.429Z,35.83
2018-12-14T19:00:56.312Z,22.60
2018-12-14T19:03:25.200Z,24.53
2018-12-14T19:05:54.175Z,23.70
2018-12-14T19:08:23.078Z,21.10
2018-12-14T19:10:52.400Z,18.33
2018-12-14T19:13:21.309Z,17.33
2018-12-14T19:15:50.214Z,18.93
2018-12-14T19:18:19.722Z,19.23
2018-12-14T19:20:48.643Z,22.07
2018-12-14T19:23:19.969Z,18.83
2018-12-14T19:25:48.524Z,19.67
2018-12-14T19:28:17.443Z,17.90
2018-12-14T19:30:46.393Z,19.50
2018-12-14T19:33:15.276Z,20.60
2018-12-14T19:35:44.536Z,23.13
2018-12-14T19:38:13.438Z,21.30
2018-12-14T19:40:42.316Z,19.07
2018-12-14T19:43:11.623Z,22.33
2018-12-14T19:45:40.594Z,21.77
2018-12-14T19:48:09.932Z,18.83
2018-12-14T19:50:38.945Z,19.53
2018-12-14T19:53:07.833Z,20.00
2018-12-14T19:55:37.140Z,20.90
2018-12-14T19:58:06.129Z,18.73
2018-12-14T20:00:35.050Z,18.30
2018-12-14T20:03:04.925Z,20.30
2018-12-14T20:05:34.434Z,18.57
2018-12-14T20:08:03.744Z,19.43
2018-12-14T20:10:32.899Z,16.10
2018-12-14T20:13:02.411Z,16.73
2018-12-14T20:15:31.212Z,16.87
2018-12-14T20:18:00.082Z,17.60
2018-12-14T20:20:28.949Z,18.23
2018-12-14T20:22:58.146Z,16.23
2018-12-14T20:25:26.986Z,17.03
2018-12-14T20:27:56.183Z,15.67
2018-12-14T20:30:25.393Z,19.20
2018-12-14T20:32:55.722Z,17.30
2018-12-14T20:35:25.298Z,17.63
2018-12-14T20:37:54.908Z,15.03
2018-12-14T20:40:24.258Z,17.30
2018-12-14T20:42:53.161Z,16.47
2018-12-14T20:45:22.146Z,16.50
2018-12-14T20:47:51.004Z,16.53
2018-12-14T20:50:19.876Z,22.07
2018-12-14T20:52:48.863Z,19.40
2018-12-14T20:55:18.012Z,17.43
2018-12-14T20:57:46.956Z,18.33
2018-12-14T21:00:15.833Z,14.87
2018-12-14T21:02:44.717Z,19.03
2018-12-14T21:05:13.835Z,17.20
2018-12-14T21:07:42.726Z,16.13
2018-12-14T21:10:12.216Z,16.40
2018-12-14T21:12:41.127Z,15.17
2018-12-14T21:15:10.479Z,18.97
2018-12-14T21:17:39.864Z,19.03
2018-12-14T21:20:09.431Z,16.37
2018-12-14T21:22:38.632Z,16.70
2018-12-14T21:25:07.928Z,15.70
2018-12-14T21:27:36.879Z,15.87
2018-12-14T21:30:07.455Z,16.90
2018-12-14T21:32:36.345Z,19.47
2018-12-14T21:35:05.746Z,21.40
2018-12-14T21:37:34.740Z,18.97
2018-12-14T21:40:04.524Z,19.03
2018-12-14T21:42:34.843Z,22.13
2018-12-14T21:45:04.605Z,17.47
2018-12-14T21:47:34.026Z,15.03
2018-12-14T21:50:03.712Z,20.77
2018-12-14T21:52:32.599Z,19.07
2018-12-14T21:55:01.693Z,17.10
2018-12-14T21:57:31.078Z,19.17
2018-12-14T22:00:00.122Z,20.33
2018-12-14T22:02:29.211Z,17.73
2018-12-14T22:04:58.169Z,17.20
2018-12-14T22:07:27.072Z,15.80
2018-12-14T22:09:56.013Z,18.77
2018-12-14T22:12:24.888Z,16.40
2018-12-14T22:14:53.786Z,16.50
2018-12-14T22:17:22.804Z,15.90
2018-12-14T22:19:51.730Z,21.77
2018-12-14T22:22:20.619Z,16.70
2018-12-14T22:24:49.925Z,18.47
2018-12-14T22:27:18.740Z,21.50
2018-12-14T22:29:47.587Z,16.60
2018-12-14T22:32:16.431Z,17.83
2018-12-14T22:34:45.303Z,16.33
2018-12-14T22:37:14.212Z,17.50
2018-12-14T22:39:43.467Z,19.43
2018-12-14T22:42:12.287Z,19.70
2018-12-14T22:44:41.138Z,19.53
2018-12-14T22:47:09.962Z,19.43
2018-12-14T22:49:39.235Z,24.53
2018-12-14T22:52:08.527Z,18.40
2018-12-14T22:54:37.456Z,16.13
2018-12-14T22:57:06.493Z,17.90
2018-12-14T22:59:35.704Z,15.63
2018-12-14T23:02:05.330Z,16.83
2018-12-14T23:04:34.217Z,16.73
2018-12-14T23:07:03.312Z,19.33
2018-12-14T23:09:32.376Z,15.27
2018-12-14T23:12:01.204Z,16.30
2018-12-14T23:14:30.093Z,15.90
2018-12-14T23:16:59.161Z,16.73
2018-12-14T23:19:27.998Z,16.37
2018-12-14T23:21:56.842Z,16.57
2018-12-14T23:24:25.718Z,15.73
2018-12-14T23:26:54.815Z,17.97
2018-12-14T23:29:23.721Z,16.77
2018-12-14T23:31:52.622Z,17.73
2018-12-14T23:34:21.499Z,17.67
2018-12-14T23:36:50.445Z,17.40
2018-12-14T23:39:19.305Z,20.27
2018-12-14T23:41:48.342Z,16.80
2018-12-14T23:44:17.229Z,16.10
2018-12-14T23:46:46.154Z,15.67
2018-12-14T23:49:15.456Z,16.87
2018-12-14T23:51:44.354Z,18.07
2018-12-14T23:54:13.219Z,18.10
2018-12-14T23:56:42.097Z,20.37
2018-12-14T23:59:11.017Z,17.90
